sensor_id;sensor_type;location;lat;lon;timestamp;P1;durP1;ratioP1;P2;durP2;ratioP2
4889;SDS011;2459;42.268;23.112;2022-10-15T00:01:08;13.43;;;8.27;;
4889;SDS011;2459;42.268;23.112;2022-10-15T00:03:35;13.90;;;7.17;;
4889;SDS011;2459;42.268;23.112;2022-10-15T00:06:05;21.37;;;8.30;;
4889;SDS011;2459;42.268;23.112;2022-10-15T00:08:32;15.70;;;8.70;;
4889;SDS011;2459;42.268;23.112;2022-10-15T00:11:03;11.37;;;6.73;;
4889;SDS011;2459;42.268;23.112;2022-10-15T00:13:30;11.53;;;6.70;;
4889;SDS011;2459;42.268;23.112;2022-10-15T00:15:58;12.60;;;6.90;;
4889;SDS011;2459;42.268;23.112;2022-10-15T00:18:25;11.90;;;6.40;;
4889;SDS011;2459;42.268;23.112;2022-10-15T00:20:51;12.27;;;6.20;;
4889;SDS011;2459;42.268;23.112;2022-10-15T00:23:18;12.00;;;5.87;;
4889;SDS011;2459;42.268;23.112;2022-10-15T00:25:44;7.73;;;5.53;;
4889;SDS011;2459;42.268;23.112;2022-10-15T00:28:11;9.70;;;4.60;;
4889;SDS011;2459;42.268;23.112;2022-10-15T00:30:37;8.70;;;5.53;;
4889;SDS011;2459;42.268;23.112;2022-10-15T00:33:05;5.87;;;3.93;;
4889;SDS011;2459;42.268;23.112;2022-10-15T00:35:32;11.40;;;4.53;;
4889;SDS011;2459;42.268;23.112;2022-10-15T00:37:59;5.50;;;4.20;;
4889;SDS011;2459;42.268;23.112;2022-10-15T00:40:25;7.73;;;5.10;;
4889;SDS011;2459;42.268;23.112;2022-10-15T00:42:52;8.23;;;5.00;;
4889;SDS011;2459;42.268;23.112;2022-10-15T00:45:18;7.03;;;5.03;;
4889;SDS011;2459;42.268;23.112;2022-10-15T00:47:46;5.50;;;4.40;;
4889;SDS011;2459;42.268;23.112;2022-10-15T00:50:14;7.90;;;5.10;;
4889;SDS011;2459;42.268;23.112;2022-10-15T00:52:43;7.60;;;4.93;;
4889;SDS011;2459;42.268;23.112;2022-10-15T00:55:11;9.40;;;5.47;;
4889;SDS011;2459;42.268;23.112;2022-10-15T00:57:39;13.40;;;6.67;;
4889;SDS011;2459;42.268;23.112;2022-10-15T01:00:08;11.00;;;6.40;;
4889;SDS011;2459;42.268;23.112;2022-10-15T01:02:35;9.07;;;5.67;;
4889;SDS011;2459;42.268;23.112;2022-10-15T01:05:01;11.73;;;5.20;;
4889;SDS011;2459;42.268;23.112;2022-10-15T01:07:30;11.23;;;6.17;;
4889;SDS011;2459;42.268;23.112;2022-10-15T01:09:56;13.40;;;5.90;;
4889;SDS011;2459;42.268;23.112;2022-10-15T01:12:25;11.10;;;5.50;;
4889;SDS011;2459;42.268;23.112;2022-10-15T01:14:55;14.30;;;7.20;;
4889;SDS011;2459;42.268;23.112;2022-10-15T01:17:24;16.83;;;6.80;;
4889;SDS011;2459;42.268;23.112;2022-10-15T01:19:59;17.27;;;6.13;;
4889;SDS011;2459;42.268;23.112;2022-10-15T01:22:28;17.00;;;6.90;;
4889;SDS011;2459;42.268;23.112;2022-10-15T01:25:05;13.97;;;6.57;;
4889;SDS011;2459;42.268;23.112;2022-10-15T01:27:36;16.03;;;6.57;;
4889;SDS011;2459;42.268;23.112;2022-10-15T01:32:52;10.03;;;6.30;;
4889;SDS011;2459;42.268;23.112;2022-10-15T01:35:21;10.47;;;5.83;;
4889;SDS011;2459;42.268;23.112;2022-10-15T01:37:50;11.13;;;6.30;;
4889;SDS011;2459;42.268;23.112;2022-10-15T01:40:19;9.97;;;6.20;;
4889;SDS011;2459;42.268;23.112;2022-10-15T01:42:48;11.13;;;6.47;;
4889;SDS011;2459;42.268;23.112;2022-10-15T01:45:17;12.97;;;6.60;;
4889;SDS011;2459;42.268;23.112;2022-10-15T01:47:45;12.53;;;7.50;;
4889;SDS011;2459;42.268;23.112;2022-10-15T01:50:15;12.43;;;6.10;;
4889;SDS011;2459;42.268;23.112;2022-10-15T01:52:42;17.50;;;7.40;;
4889;SDS011;2459;42.268;23.112;2022-10-15T01:55:10;12.77;;;7.63;;
4889;SDS011;2459;42.268;23.112;2022-10-15T01:57:38;16.83;;;8.40;;
4889;SDS011;2459;42.268;23.112;2022-10-15T02:00:06;13.13;;;6.40;;
4889;SDS011;2459;42.268;23.112;2022-10-15T02:02:33;13.73;;;8.40;;
4889;SDS011;2459;42.268;23.112;2022-10-15T02:04:59;17.70;;;7.40;;
4889;SDS011;2459;42.268;23.112;2022-10-15T02:07:29;14.57;;;7.20;;
4889;SDS011;2459;42.268;23.112;2022-10-15T02:09:59;19.27;;;6.57;;
4889;SDS011;2459;42.268;23.112;2022-10-15T02:12:30;13.63;;;8.53;;
4889;SDS011;2459;42.268;23.112;2022-10-15T02:15:00;19.80;;;6.67;;
4889;SDS011;2459;42.268;23.112;2022-10-15T02:17:30;10.03;;;7.10;;
4889;SDS011;2459;42.268;23.112;2022-10-15T02:19:57;13.47;;;6.67;;
4889;SDS011;2459;42.268;23.112;2022-10-15T02:22:26;16.77;;;7.80;;
4889;SDS011;2459;42.268;23.112;2022-10-15T02:25:00;14.50;;;8.63;;
4889;SDS011;2459;42.268;23.112;2022-10-15T02:27:29;12.70;;;7.50;;
4889;SDS011;2459;42.268;23.112;2022-10-15T02:29:56;11.70;;;7.80;;
4889;SDS011;2459;42.268;23.112;2022-10-15T02:32:23;20.90;;;8.80;;
4889;SDS011;2459;42.268;23.112;2022-10-15T02:34:50;13.80;;;7.50;;
4889;SDS011;2459;42.268;23.112;2022-10-15T02:37:18;17.63;;;8.17;;
4889;SDS011;2459;42.268;23.112;2022-10-15T02:39:45;20.43;;;9.23;;
4889;SDS011;2459;42.268;23.112;2022-10-15T02:42:14;10.67;;;7.10;;
4889;SDS011;2459;42.268;23.112;2022-10-15T02:44:41;11.53;;;7.30;;
4889;SDS011;2459;42.268;23.112;2022-10-15T02:47:08;15.57;;;8.03;;
4889;SDS011;2459;42.268;23.112;2022-10-15T02:49:35;8.30;;;6.20;;
4889;SDS011;2459;42.268;23.112;2022-10-15T02:52:01;12.20;;;7.67;;
4889;SDS011;2459;42.268;23.112;2022-10-15T02:54:28;13.10;;;7.63;;
4889;SDS011;2459;42.268;23.112;2022-10-15T02:56:54;12.80;;;7.13;;
4889;SDS011;2459;42.268;23.112;2022-10-15T02:59:22;9.40;;;6.83;;
4889;SDS011;2459;42.268;23.112;2022-10-15T03:01:49;13.80;;;7.00;;
4889;SDS011;2459;42.268;23.112;2022-10-15T03:04:15;12.10;;;6.40;;
4889;SDS011;2459;42.268;23.112;2022-10-15T03:06:42;19.53;;;7.73;;
4889;SDS011;2459;42.268;23.112;2022-10-15T03:09:08;11.80;;;8.00;;
4889;SDS011;2459;42.268;23.112;2022-10-15T03:11:36;15.63;;;7.90;;
4889;SDS011;2459;42.268;23.112;2022-10-15T03:14:02;15.97;;;8.07;;
4889;SDS011;2459;42.268;23.112;2022-10-15T03:16:30;10.63;;;7.33;;
4889;SDS011;2459;42.268;23.112;2022-10-15T03:18:57;11.97;;;7.03;;
4889;SDS011;2459;42.268;23.112;2022-10-15T03:21:23;12.07;;;7.03;;
4889;SDS011;2459;42.268;23.112;2022-10-15T03:23:50;12.77;;;6.63;;
4889;SDS011;2459;42.268;23.112;2022-10-15T03:26:16;15.90;;;8.27;;
4889;SDS011;2459;42.268;23.112;2022-10-15T03:28:43;12.00;;;7.23;;
4889;SDS011;2459;42.268;23.112;2022-10-15T03:31:09;15.60;;;7.50;;
4889;SDS011;2459;42.268;23.112;2022-10-15T03:33:38;17.70;;;8.60;;
4889;SDS011;2459;42.268;23.112;2022-10-15T03:36:05;13.60;;;9.30;;
4889;SDS011;2459;42.268;23.112;2022-10-15T03:38:32;21.93;;;8.90;;
4889;SDS011;2459;42.268;23.112;2022-10-15T03:40:58;17.27;;;12.30;;
4889;SDS011;2459;42.268;23.112;2022-10-15T03:43:25;19.10;;;12.10;;
4889;SDS011;2459;42.268;23.112;2022-10-15T03:45:52;17.30;;;10.60;;
4889;SDS011;2459;42.268;23.112;2022-10-15T03:48:18;14.20;;;8.90;;
4889;SDS011;2459;42.268;23.112;2022-10-15T03:50:46;17.10;;;8.40;;
4889;SDS011;2459;42.268;23.112;2022-10-15T03:53:12;19.63;;;9.60;;
4889;SDS011;2459;42.268;23.112;2022-10-15T03:55:39;21.67;;;9.23;;
4889;SDS011;2459;42.268;23.112;2022-10-15T03:58:05;22.17;;;8.40;;
4889;SDS011;2459;42.268;23.112;2022-10-15T04:00:32;22.27;;;8.73;;
4889;SDS011;2459;42.268;23.112;2022-10-15T04:02:58;19.97;;;9.03;;
4889;SDS011;2459;42.268;23.112;2022-10-15T04:05:25;17.17;;;8.60;;
4889;SDS011;2459;42.268;23.112;2022-10-15T04:07:53;17.53;;;8.93;;
4889;SDS011;2459;42.268;23.112;2022-10-15T04:10:19;16.10;;;8.70;;
4889;SDS011;2459;42.268;23.112;2022-10-15T04:12:46;21.40;;;8.77;;
4889;SDS011;2459;42.268;23.112;2022-10-15T04:15:12;12.67;;;8.37;;
4889;SDS011;2459;42.268;23.112;2022-10-15T04:17:39;18.90;;;8.73;;
4889;SDS011;2459;42.268;23.112;2022-10-15T04:20:05;15.03;;;8.33;;
4889;SDS011;2459;42.268;23.112;2022-10-15T04:22:32;15.97;;;8.87;;
4889;SDS011;2459;42.268;23.112;2022-10-15T04:25:00;15.60;;;8.03;;
4889;SDS011;2459;42.268;23.112;2022-10-15T04:27:27;22.53;;;8.77;;
4889;SDS011;2459;42.268;23.112;2022-10-15T04:29:53;18.27;;;10.07;;
4889;SDS011;2459;42.268;23.112;2022-10-15T04:32:20;11.40;;;7.70;;
4889;SDS011;2459;42.268;23.112;2022-10-15T04:34:47;15.83;;;7.90;;
4889;SDS011;2459;42.268;23.112;2022-10-15T04:37:13;13.30;;;7.60;;
4889;SDS011;2459;42.268;23.112;2022-10-15T04:39:40;10.67;;;7.73;;
4889;SDS011;2459;42.268;23.112;2022-10-15T04:42:07;14.40;;;7.73;;
4889;SDS011;2459;42.268;23.112;2022-10-15T04:44:34;13.67;;;8.13;;
4889;SDS011;2459;42.268;23.112;2022-10-15T04:47:00;15.87;;;8.50;;
4889;SDS011;2459;42.268;23.112;2022-10-15T04:49:27;16.83;;;7.80;;
4889;SDS011;2459;42.268;23.112;2022-10-15T04:51:54;13.10;;;7.53;;
4889;SDS011;2459;42.268;23.112;2022-10-15T04:54:20;12.00;;;7.73;;
4889;SDS011;2459;42.268;23.112;2022-10-15T04:56:47;12.60;;;8.77;;
4889;SDS011;2459;42.268;23.112;2022-10-15T04:59:14;15.63;;;8.90;;
4889;SDS011;2459;42.268;23.112;2022-10-15T05:01:41;11.77;;;8.97;;
4889;SDS011;2459;42.268;23.112;2022-10-15T05:04:08;17.30;;;11.03;;
4889;SDS011;2459;42.268;23.112;2022-10-15T05:06:35;17.07;;;9.57;;
4889;SDS011;2459;42.268;23.112;2022-10-15T05:09:02;9.60;;;5.00;;
4889;SDS011;2459;42.268;23.112;2022-10-15T05:11:29;20.83;;;7.40;;
4889;SDS011;2459;42.268;23.112;2022-10-15T05:13:55;8.00;;;4.73;;
4889;SDS011;2459;42.268;23.112;2022-10-15T05:16:24;10.57;;;4.83;;
4889;SDS011;2459;42.268;23.112;2022-10-15T05:18:51;5.73;;;3.87;;
4889;SDS011;2459;42.268;23.112;2022-10-15T05:21:18;7.60;;;4.50;;
4889;SDS011;2459;42.268;23.112;2022-10-15T05:23:44;7.30;;;4.47;;
4889;SDS011;2459;42.268;23.112;2022-10-15T05:26:12;6.60;;;4.03;;
4889;SDS011;2459;42.268;23.112;2022-10-15T05:28:38;5.50;;;3.17;;
4889;SDS011;2459;42.268;23.112;2022-10-15T05:31:05;5.03;;;3.73;;
4889;SDS011;2459;42.268;23.112;2022-10-15T05:33:33;7.97;;;4.77;;
4889;SDS011;2459;42.268;23.112;2022-10-15T05:36:09;8.87;;;4.50;;
4889;SDS011;2459;42.268;23.112;2022-10-15T05:38:35;3.50;;;3.17;;
4889;SDS011;2459;42.268;23.112;2022-10-15T05:41:02;7.67;;;4.70;;
4889;SDS011;2459;42.268;23.112;2022-10-15T05:43:28;5.43;;;4.03;;
4889;SDS011;2459;42.268;23.112;2022-10-15T05:45:55;6.03;;;3.87;;
4889;SDS011;2459;42.268;23.112;2022-10-15T05:48:21;6.30;;;4.27;;
4889;SDS011;2459;42.268;23.112;2022-10-15T05:50:49;6.33;;;3.70;;
4889;SDS011;2459;42.268;23.112;2022-10-15T05:53:15;9.63;;;4.37;;
4889;SDS011;2459;42.268;23.112;2022-10-15T05:55:42;4.23;;;3.57;;
4889;SDS011;2459;42.268;23.112;2022-10-15T05:58:08;9.30;;;3.60;;
4889;SDS011;2459;42.268;23.112;2022-10-15T06:00:35;4.50;;;4.10;;
4889;SDS011;2459;42.268;23.112;2022-10-15T06:03:03;9.23;;;4.10;;
4889;SDS011;2459;42.268;23.112;2022-10-15T06:05:30;9.60;;;3.87;;
4889;SDS011;2459;42.268;23.112;2022-10-15T06:07:58;10.73;;;4.97;;
4889;SDS011;2459;42.268;23.112;2022-10-15T06:10:24;6.57;;;4.17;;
4889;SDS011;2459;42.268;23.112;2022-10-15T06:12:52;14.30;;;8.17;;
4889;SDS011;2459;42.268;23.112;2022-10-15T06:15:19;11.37;;;4.60;;
4889;SDS011;2459;42.268;23.112;2022-10-15T06:17:46;9.80;;;4.00;;
4889;SDS011;2459;42.268;23.112;2022-10-15T06:20:12;7.07;;;4.90;;
4889;SDS011;2459;42.268;23.112;2022-10-15T06:22:39;15.37;;;4.37;;
4889;SDS011;2459;42.268;23.112;2022-10-15T06:25:10;12.33;;;4.07;;
4889;SDS011;2459;42.268;23.112;2022-10-15T06:27:36;6.30;;;4.10;;
4889;SDS011;2459;42.268;23.112;2022-10-15T06:30:03;4.13;;;3.00;;
4889;SDS011;2459;42.268;23.112;2022-10-15T06:32:30;8.50;;;3.20;;
4889;SDS011;2459;42.268;23.112;2022-10-15T06:34:57;9.30;;;3.03;;
4889;SDS011;2459;42.268;23.112;2022-10-15T06:37:23;3.40;;;2.87;;
4889;SDS011;2459;42.268;23.112;2022-10-15T06:39:50;7.20;;;3.40;;
4889;SDS011;2459;42.268;23.112;2022-10-15T06:42:18;10.20;;;3.60;;
4889;SDS011;2459;42.268;23.112;2022-10-15T06:44:44;3.00;;;2.80;;
4889;SDS011;2459;42.268;23.112;2022-10-15T06:47:11;6.87;;;3.83;;
4889;SDS011;2459;42.268;23.112;2022-10-15T06:49:37;5.63;;;2.77;;
4889;SDS011;2459;42.268;23.112;2022-10-15T06:52:04;5.27;;;3.07;;
4889;SDS011;2459;42.268;23.112;2022-10-15T06:54:31;4.10;;;2.23;;
4889;SDS011;2459;42.268;23.112;2022-10-15T06:56:57;5.73;;;3.10;;
4889;SDS011;2459;42.268;23.112;2022-10-15T06:59:25;4.40;;;1.80;;
4889;SDS011;2459;42.268;23.112;2022-10-15T07:01:52;3.97;;;2.50;;
4889;SDS011;2459;42.268;23.112;2022-10-15T07:04:18;4.83;;;2.50;;
4889;SDS011;2459;42.268;23.112;2022-10-15T07:06:45;4.97;;;2.17;;
4889;SDS011;2459;42.268;23.112;2022-10-15T07:09:11;4.33;;;3.10;;
4889;SDS011;2459;42.268;23.112;2022-10-15T07:11:38;7.33;;;2.40;;
4889;SDS011;2459;42.268;23.112;2022-10-15T07:14:05;5.53;;;3.10;;
4889;SDS011;2459;42.268;23.112;2022-10-15T07:16:33;16.03;;;2.63;;
4889;SDS011;2459;42.268;23.112;2022-10-15T07:19:01;7.10;;;2.43;;
4889;SDS011;2459;42.268;23.112;2022-10-15T07:21:27;15.47;;;2.40;;
4889;SDS011;2459;42.268;23.112;2022-10-15T07:23:57;7.63;;;3.23;;
4889;SDS011;2459;42.268;23.112;2022-10-15T07:26:25;10.23;;;3.60;;
4889;SDS011;2459;42.268;23.112;2022-10-15T07:28:53;7.67;;;3.20;;
4889;SDS011;2459;42.268;23.112;2022-10-15T07:31:19;7.93;;;3.23;;
4889;SDS011;2459;42.268;23.112;2022-10-15T07:33:47;5.60;;;3.10;;
4889;SDS011;2459;42.268;23.112;2022-10-15T07:36:14;10.07;;;3.43;;
4889;SDS011;2459;42.268;23.112;2022-10-15T07:38:41;12.30;;;4.73;;
4889;SDS011;2459;42.268;23.112;2022-10-15T07:41:08;3.57;;;2.57;;
4889;SDS011;2459;42.268;23.112;2022-10-15T07:43:35;7.93;;;2.60;;
4889;SDS011;2459;42.268;23.112;2022-10-15T07:46:01;8.33;;;2.87;;
4889;SDS011;2459;42.268;23.112;2022-10-15T07:48:28;3.10;;;1.90;;
4889;SDS011;2459;42.268;23.112;2022-10-15T07:50:57;4.83;;;2.33;;
4889;SDS011;2459;42.268;23.112;2022-10-15T07:53:24;4.33;;;2.17;;
4889;SDS011;2459;42.268;23.112;2022-10-15T07:55:50;8.33;;;4.83;;
4889;SDS011;2459;42.268;23.112;2022-10-15T07:58:17;5.93;;;2.73;;
4889;SDS011;2459;42.268;23.112;2022-10-15T08:00:43;5.03;;;2.03;;
4889;SDS011;2459;42.268;23.112;2022-10-15T08:03:10;5.77;;;2.37;;
4889;SDS011;2459;42.268;23.112;2022-10-15T08:05:36;3.50;;;1.73;;
4889;SDS011;2459;42.268;23.112;2022-10-15T08:08:04;7.97;;;2.50;;
4889;SDS011;2459;42.268;23.112;2022-10-15T08:10:31;3.80;;;2.83;;
4889;SDS011;2459;42.268;23.112;2022-10-15T08:12:57;5.23;;;2.30;;
4889;SDS011;2459;42.268;23.112;2022-10-15T08:15:24;4.50;;;2.63;;
4889;SDS011;2459;42.268;23.112;2022-10-15T08:17:50;3.43;;;2.70;;
4889;SDS011;2459;42.268;23.112;2022-10-15T08:20:17;7.90;;;3.00;;
4889;SDS011;2459;42.268;23.112;2022-10-15T08:22:45;3.40;;;3.03;;
4889;SDS011;2459;42.268;23.112;2022-10-15T08:25:12;18.70;;;2.30;;
4889;SDS011;2459;42.268;23.112;2022-10-15T08:27:39;3.30;;;2.37;;
4889;SDS011;2459;42.268;23.112;2022-10-15T08:30:06;11.93;;;2.67;;
4889;SDS011;2459;42.268;23.112;2022-10-15T08:32:33;4.20;;;2.83;;
4889;SDS011;2459;42.268;23.112;2022-10-15T08:34:59;4.13;;;2.20;;
4889;SDS011;2459;42.268;23.112;2022-10-15T08:37:25;3.57;;;2.47;;
4889;SDS011;2459;42.268;23.112;2022-10-15T08:39:52;3.33;;;2.20;;
4889;SDS011;2459;42.268;23.112;2022-10-15T08:42:21;4.33;;;1.93;;
4889;SDS011;2459;42.268;23.112;2022-10-15T08:44:52;3.03;;;1.90;;
4889;SDS011;2459;42.268;23.112;2022-10-15T08:47:28;2.80;;;2.60;;
4889;SDS011;2459;42.268;23.112;2022-10-15T08:49:56;3.47;;;2.53;;
4889;SDS011;2459;42.268;23.112;2022-10-15T08:52:23;5.87;;;3.10;;
4889;SDS011;2459;42.268;23.112;2022-10-15T08:54:51;8.93;;;2.40;;
4889;SDS011;2459;42.268;23.112;2022-10-15T08:57:22;5.43;;;2.90;;
4889;SDS011;2459;42.268;23.112;2022-10-15T08:59:52;3.17;;;2.77;;
4889;SDS011;2459;42.268;23.112;2022-10-15T09:02:22;5.27;;;2.47;;
4889;SDS011;2459;42.268;23.112;2022-10-15T09:04:52;5.60;;;3.40;;
4889;SDS011;2459;42.268;23.112;2022-10-15T09:07:21;7.97;;;3.20;;
4889;SDS011;2459;42.268;23.112;2022-10-15T09:09:50;3.67;;;2.50;;
4889;SDS011;2459;42.268;23.112;2022-10-15T09:12:21;9.73;;;3.10;;
4889;SDS011;2459;42.268;23.112;2022-10-15T09:14:54;4.10;;;2.47;;
4889;SDS011;2459;42.268;23.112;2022-10-15T09:17:23;4.27;;;2.47;;
4889;SDS011;2459;42.268;23.112;2022-10-15T09:19:51;7.40;;;2.33;;
4889;SDS011;2459;42.268;23.112;2022-10-15T09:22:21;8.07;;;3.10;;
4889;SDS011;2459;42.268;23.112;2022-10-15T09:24:48;2.80;;;2.17;;
4889;SDS011;2459;42.268;23.112;2022-10-15T09:27:18;6.27;;;2.90;;
4889;SDS011;2459;42.268;23.112;2022-10-15T09:29:48;4.23;;;2.67;;
4889;SDS011;2459;42.268;23.112;2022-10-15T09:32:16;5.27;;;2.90;;
4889;SDS011;2459;42.268;23.112;2022-10-15T09:34:47;4.90;;;2.73;;
4889;SDS011;2459;42.268;23.112;2022-10-15T09:37:16;4.90;;;2.50;;
4889;SDS011;2459;42.268;23.112;2022-10-15T09:39:57;2.23;;;1.63;;
4889;SDS011;2459;42.268;23.112;2022-10-15T09:42:27;4.53;;;3.30;;
4889;SDS011;2459;42.268;23.112;2022-10-15T09:44:58;4.37;;;2.80;;
4889;SDS011;2459;42.268;23.112;2022-10-15T09:47:26;4.17;;;2.47;;
4889;SDS011;2459;42.268;23.112;2022-10-15T09:49:52;4.40;;;2.43;;
4889;SDS011;2459;42.268;23.112;2022-10-15T09:52:20;3.57;;;2.53;;
4889;SDS011;2459;42.268;23.112;2022-10-15T09:54:51;3.23;;;2.70;;
4889;SDS011;2459;42.268;23.112;2022-10-15T09:57:21;4.50;;;2.60;;
4889;SDS011;2459;42.268;23.112;2022-10-15T09:59:52;3.43;;;3.00;;
4889;SDS011;2459;42.268;23.112;2022-10-15T10:02:20;3.73;;;1.87;;
4889;SDS011;2459;42.268;23.112;2022-10-15T10:04:47;3.90;;;2.63;;
4889;SDS011;2459;42.268;23.112;2022-10-15T10:07:27;3.93;;;2.83;;
4889;SDS011;2459;42.268;23.112;2022-10-15T10:09:55;4.17;;;2.97;;
4889;SDS011;2459;42.268;23.112;2022-10-15T10:12:24;4.78;;;2.40;;
4889;SDS011;2459;42.268;23.112;2022-10-15T10:14:52;5.05;;;3.28;;
4889;SDS011;2459;42.268;23.112;2022-10-15T10:17:21;2.73;;;2.10;;
4889;SDS011;2459;42.268;23.112;2022-10-15T10:20:01;2.93;;;2.20;;
4889;SDS011;2459;42.268;23.112;2022-10-15T10:22:28;4.17;;;3.20;;
4889;SDS011;2459;42.268;23.112;2022-10-15T10:24:55;4.80;;;2.60;;
4889;SDS011;2459;42.268;23.112;2022-10-15T10:27:22;6.57;;;2.87;;
4889;SDS011;2459;42.268;23.112;2022-10-15T10:29:53;10.40;;;2.70;;
4889;SDS011;2459;42.268;23.112;2022-10-15T10:32:22;5.17;;;2.43;;
4889;SDS011;2459;42.268;23.112;2022-10-15T10:34:52;3.03;;;2.13;;
4889;SDS011;2459;42.268;23.112;2022-10-15T10:37:19;3.80;;;2.90;;
4889;SDS011;2459;42.268;23.112;2022-10-15T10:39:50;3.40;;;2.50;;
4889;SDS011;2459;42.268;23.112;2022-10-15T10:42:24;3.17;;;2.47;;
4889;SDS011;2459;42.268;23.112;2022-10-15T10:44:51;6.60;;;2.97;;
4889;SDS011;2459;42.268;23.112;2022-10-15T10:47:19;3.73;;;2.70;;
4889;SDS011;2459;42.268;23.112;2022-10-15T10:49:48;21.10;;;2.40;;
4889;SDS011;2459;42.268;23.112;2022-10-15T10:52:18;2.03;;;1.80;;
4889;SDS011;2459;42.268;23.112;2022-10-15T10:54:45;3.20;;;2.43;;
4889;SDS011;2459;42.268;23.112;2022-10-15T10:57:12;9.03;;;2.60;;
4889;SDS011;2459;42.268;23.112;2022-10-15T10:59:42;3.55;;;2.20;;
4889;SDS011;2459;42.268;23.112;2022-10-15T11:02:09;2.58;;;2.38;;
4889;SDS011;2459;42.268;23.112;2022-10-15T11:04:36;2.72;;;2.17;;
4889;SDS011;2459;42.268;23.112;2022-10-15T11:07:05;5.40;;;2.93;;
4889;SDS011;2459;42.268;23.112;2022-10-15T11:09:44;2.60;;;1.97;;
4889;SDS011;2459;42.268;23.112;2022-10-15T11:12:25;2.73;;;2.43;;
4889;SDS011;2459;42.268;23.112;2022-10-15T11:14:53;3.13;;;2.10;;
4889;SDS011;2459;42.268;23.112;2022-10-15T11:17:22;4.47;;;2.40;;
4889;SDS011;2459;42.268;23.112;2022-10-15T11:19:56;2.00;;;1.80;;
4889;SDS011;2459;42.268;23.112;2022-10-15T11:22:34;2.57;;;2.37;;
4889;SDS011;2459;42.268;23.112;2022-10-15T11:25:04;2.03;;;1.80;;
4889;SDS011;2459;42.268;23.112;2022-10-15T11:27:43;3.33;;;1.73;;
4889;SDS011;2459;42.268;23.112;2022-10-15T11:30:21;2.60;;;2.17;;
4889;SDS011;2459;42.268;23.112;2022-10-15T11:32:52;2.00;;;1.77;;
4889;SDS011;2459;42.268;23.112;2022-10-15T11:35:29;2.50;;;1.97;;
4889;SDS011;2459;42.268;23.112;2022-10-15T11:38:01;6.90;;;2.37;;
4889;SDS011;2459;42.268;23.112;2022-10-15T11:40:31;1.90;;;1.80;;
4889;SDS011;2459;42.268;23.112;2022-10-15T11:43:00;2.07;;;1.90;;
4889;SDS011;2459;42.268;23.112;2022-10-15T11:45:37;4.20;;;2.43;;
4889;SDS011;2459;42.268;23.112;2022-10-15T11:48:08;1.87;;;1.50;;
4889;SDS011;2459;42.268;23.112;2022-10-15T11:50:38;2.13;;;1.93;;
4889;SDS011;2459;42.268;23.112;2022-10-15T11:55:49;2.47;;;1.60;;
4889;SDS011;2459;42.268;23.112;2022-10-15T11:58:22;2.70;;;1.63;;
4889;SDS011;2459;42.268;23.112;2022-10-15T12:00:52;1.50;;;1.40;;
4889;SDS011;2459;42.268;23.112;2022-10-15T12:03:21;1.70;;;1.60;;
4889;SDS011;2459;42.268;23.112;2022-10-15T12:05:49;2.83;;;1.70;;
4889;SDS011;2459;42.268;23.112;2022-10-15T12:08:17;2.33;;;2.00;;
4889;SDS011;2459;42.268;23.112;2022-10-15T12:10:51;6.80;;;1.70;;
4889;SDS011;2459;42.268;23.112;2022-10-15T12:13:20;2.87;;;2.00;;
4889;SDS011;2459;42.268;23.112;2022-10-15T12:15:49;1.40;;;1.30;;
4889;SDS011;2459;42.268;23.112;2022-10-15T12:18:19;2.23;;;2.03;;
4889;SDS011;2459;42.268;23.112;2022-10-15T12:20:48;1.67;;;1.57;;
4889;SDS011;2459;42.268;23.112;2022-10-15T12:23:22;3.80;;;1.50;;
4889;SDS011;2459;42.268;23.112;2022-10-15T12:25:50;1.43;;;1.33;;
4889;SDS011;2459;42.268;23.112;2022-10-15T12:28:18;1.50;;;1.40;;
4889;SDS011;2459;42.268;23.112;2022-10-15T12:30:52;2.40;;;1.60;;
4889;SDS011;2459;42.268;23.112;2022-10-15T12:33:22;1.73;;;1.60;;
4889;SDS011;2459;42.268;23.112;2022-10-15T12:35:52;2.53;;;2.13;;
4889;SDS011;2459;42.268;23.112;2022-10-15T12:38:20;2.70;;;1.30;;
4889;SDS011;2459;42.268;23.112;2022-10-15T12:40:55;2.10;;;1.13;;
4889;SDS011;2459;42.268;23.112;2022-10-15T12:43:22;1.70;;;1.33;;
4889;SDS011;2459;42.268;23.112;2022-10-15T12:45:50;2.10;;;1.80;;
4889;SDS011;2459;42.268;23.112;2022-10-15T12:48:18;2.77;;;1.90;;
4889;SDS011;2459;42.268;23.112;2022-10-15T12:50:45;1.37;;;1.27;;
4889;SDS011;2459;42.268;23.112;2022-10-15T12:53:28;1.43;;;1.23;;
4889;SDS011;2459;42.268;23.112;2022-10-15T12:58:39;1.40;;;1.30;;
4889;SDS011;2459;42.268;23.112;2022-10-15T13:01:18;3.93;;;3.13;;
4889;SDS011;2459;42.268;23.112;2022-10-15T13:03:52;2.90;;;1.10;;
4889;SDS011;2459;42.268;23.112;2022-10-15T13:06:29;1.63;;;1.57;;
4889;SDS011;2459;42.268;23.112;2022-10-15T13:08:58;1.80;;;1.70;;
4889;SDS011;2459;42.268;23.112;2022-10-15T13:11:28;1.50;;;1.40;;
4889;SDS011;2459;42.268;23.112;2022-10-15T13:13:57;3.10;;;1.30;;
4889;SDS011;2459;42.268;23.112;2022-10-15T13:16:24;2.27;;;1.40;;
4889;SDS011;2459;42.268;23.112;2022-10-15T13:18:52;1.57;;;1.47;;
4889;SDS011;2459;42.268;23.112;2022-10-15T13:21:19;1.50;;;1.40;;
4889;SDS011;2459;42.268;23.112;2022-10-15T13:23:46;1.17;;;1.07;;
4889;SDS011;2459;42.268;23.112;2022-10-15T13:26:16;2.40;;;1.63;;
4889;SDS011;2459;42.268;23.112;2022-10-15T13:28:43;1.97;;;1.23;;
4889;SDS011;2459;42.268;23.112;2022-10-15T13:31:19;1.60;;;1.50;;
4889;SDS011;2459;42.268;23.112;2022-10-15T13:33:48;2.97;;;1.43;;
4889;SDS011;2459;42.268;23.112;2022-10-15T13:36:17;1.93;;;1.70;;
4889;SDS011;2459;42.268;23.112;2022-10-15T13:38:48;6.23;;;2.60;;
4889;SDS011;2459;42.268;23.112;2022-10-15T13:41:20;6.23;;;2.03;;
4889;SDS011;2459;42.268;23.112;2022-10-15T13:43:49;2.90;;;1.50;;
4889;SDS011;2459;42.268;23.112;2022-10-15T13:46:16;7.43;;;4.00;;
4889;SDS011;2459;42.268;23.112;2022-10-15T13:48:44;10.13;;;4.70;;
4889;SDS011;2459;42.268;23.112;2022-10-15T13:51:10;13.20;;;6.77;;
4889;SDS011;2459;42.268;23.112;2022-10-15T13:53:38;3.60;;;3.10;;
4889;SDS011;2459;42.268;23.112;2022-10-15T13:56:14;2.20;;;2.00;;
4889;SDS011;2459;42.268;23.112;2022-10-15T13:58:43;5.07;;;3.53;;
4889;SDS011;2459;42.268;23.112;2022-10-15T14:01:13;4.50;;;1.50;;
4889;SDS011;2459;42.268;23.112;2022-10-15T14:03:45;4.13;;;2.87;;
4889;SDS011;2459;42.268;23.112;2022-10-15T14:06:15;2.50;;;2.07;;
4889;SDS011;2459;42.268;23.112;2022-10-15T14:08:42;5.43;;;1.80;;
4889;SDS011;2459;42.268;23.112;2022-10-15T14:11:09;2.30;;;2.10;;
4889;SDS011;2459;42.268;23.112;2022-10-15T14:13:42;2.20;;;1.80;;
4889;SDS011;2459;42.268;23.112;2022-10-15T14:16:12;5.03;;;2.57;;
4889;SDS011;2459;42.268;23.112;2022-10-15T14:18:41;2.57;;;1.90;;
4889;SDS011;2459;42.268;23.112;2022-10-15T14:21:13;3.33;;;2.80;;
4889;SDS011;2459;42.268;23.112;2022-10-15T14:23:40;2.27;;;2.07;;
4889;SDS011;2459;42.268;23.112;2022-10-15T14:26:08;3.17;;;2.10;;
4889;SDS011;2459;42.268;23.112;2022-10-15T14:28:35;1.73;;;1.50;;
4889;SDS011;2459;42.268;23.112;2022-10-15T14:31:02;2.43;;;2.20;;
4889;SDS011;2459;42.268;23.112;2022-10-15T14:33:30;2.10;;;1.60;;
4889;SDS011;2459;42.268;23.112;2022-10-15T14:36:04;1.63;;;1.40;;
4889;SDS011;2459;42.268;23.112;2022-10-15T14:38:33;2.53;;;1.80;;
4889;SDS011;2459;42.268;23.112;2022-10-15T14:41:00;3.17;;;2.27;;
4889;SDS011;2459;42.268;23.112;2022-10-15T14:43:28;3.70;;;2.10;;
4889;SDS011;2459;42.268;23.112;2022-10-15T14:45:56;3.00;;;2.30;;
4889;SDS011;2459;42.268;23.112;2022-10-15T14:48:23;2.73;;;2.40;;
4889;SDS011;2459;42.268;23.112;2022-10-15T14:50:51;3.03;;;2.10;;
4889;SDS011;2459;42.268;23.112;2022-10-15T14:53:18;1.70;;;1.60;;
4889;SDS011;2459;42.268;23.112;2022-10-15T14:55:48;1.60;;;1.50;;
4889;SDS011;2459;42.268;23.112;2022-10-15T14:58:17;2.37;;;1.63;;
4889;SDS011;2459;42.268;23.112;2022-10-15T15:00:44;1.30;;;1.30;;
4889;SDS011;2459;42.268;23.112;2022-10-15T15:03:13;3.17;;;2.70;;
4889;SDS011;2459;42.268;23.112;2022-10-15T15:05:44;3.33;;;2.03;;
4889;SDS011;2459;42.268;23.112;2022-10-15T15:08:11;1.70;;;1.60;;
4889;SDS011;2459;42.268;23.112;2022-10-15T15:10:38;7.20;;;2.17;;